sensor_id;sensor_type;location;lat;lon;timestamp;P1;durP1;ratioP1;P2;durP2;ratioP2
61152;SDS011;47030;50.732;4.286;2022-09-13T00:00:29;7.35;;;3.15;;
61152;SDS011;47030;50.732;4.286;2022-09-13T00:02:55;5.30;;;3.05;;
61152;SDS011;47030;50.732;4.286;2022-09-13T00:05:21;3.97;;;2.80;;
61152;SDS011;47030;50.732;4.286;2022-09-13T00:07:47;6.32;;;2.70;;
61152;SDS011;47030;50.732;4.286;2022-09-13T00:10:13;3.45;;;2.95;;
61152;SDS011;47030;50.732;4.286;2022-09-13T00:12:38;5.03;;;2.87;;
61152;SDS011;47030;50.732;4.286;2022-09-13T00:15:04;4.72;;;2.70;;
61152;SDS011;47030;50.732;4.286;2022-09-13T00:17:30;4.80;;;2.72;;
61152;SDS011;47030;50.732;4.286;2022-09-13T00:19:56;3.20;;;2.90;;
61152;SDS011;47030;50.732;4.286;2022-09-13T00:22:22;4.22;;;2.85;;
61152;SDS011;47030;50.732;4.286;2022-09-13T00:24:47;4.80;;;2.90;;
61152;SDS011;47030;50.732;4.286;2022-09-13T00:27:13;3.45;;;3.00;;
61152;SDS011;47030;50.732;4.286;2022-09-13T00:29:39;5.90;;;3.17;;
61152;SDS011;47030;50.732;4.286;2022-09-13T00:32:05;7.22;;;3.30;;
61152;SDS011;47030;50.732;4.286;2022-09-13T00:34:30;4.93;;;2.60;;
61152;SDS011;47030;50.732;4.286;2022-09-13T00:36:56;5.72;;;3.10;;
61152;SDS011;47030;50.732;4.286;2022-09-13T00:39:22;6.12;;;2.83;;
61152;SDS011;47030;50.732;4.286;2022-09-13T00:41:48;4.87;;;2.75;;
61152;SDS011;47030;50.732;4.286;2022-09-13T00:47:19;9.07;;;3.10;;
61152;SDS011;47030;50.732;4.286;2022-09-13T00:49:48;5.85;;;2.92;;
61152;SDS011;47030;50.732;4.286;2022-09-13T00:52:20;4.55;;;2.92;;
61152;SDS011;47030;50.732;4.286;2022-09-13T00:54:50;4.87;;;3.28;;
61152;SDS011;47030;50.732;4.286;2022-09-13T00:57:19;4.62;;;3.17;;
61152;SDS011;47030;50.732;4.286;2022-09-13T00:59:55;5.18;;;2.80;;
61152;SDS011;47030;50.732;4.286;2022-09-13T01:02:34;4.07;;;3.00;;
61152;SDS011;47030;50.732;4.286;2022-09-13T01:05:00;3.50;;;3.10;;
61152;SDS011;47030;50.732;4.286;2022-09-13T01:07:26;4.95;;;3.00;;
61152;SDS011;47030;50.732;4.286;2022-09-13T01:09:52;5.10;;;3.30;;
61152;SDS011;47030;50.732;4.286;2022-09-13T01:12:36;5.07;;;2.65;;
61152;SDS011;47030;50.732;4.286;2022-09-13T01:15:08;3.67;;;3.25;;
61152;SDS011;47030;50.732;4.286;2022-09-13T01:17:34;4.07;;;2.90;;
61152;SDS011;47030;50.732;4.286;2022-09-13T01:20:01;3.37;;;2.75;;
61152;SDS011;47030;50.732;4.286;2022-09-13T01:31:07;3.17;;;2.70;;
61152;SDS011;47030;50.732;4.286;2022-09-13T01:33:42;2.75;;;2.50;;
61152;SDS011;47030;50.732;4.286;2022-09-13T01:36:36;4.15;;;2.85;;
61152;SDS011;47030;50.732;4.286;2022-09-13T01:39:13;3.67;;;2.70;;
61152;SDS011;47030;50.732;4.286;2022-09-13T01:44:26;3.87;;;2.58;;
61152;SDS011;47030;50.732;4.286;2022-09-13T01:57:18;3.25;;;2.60;;
61152;SDS011;47030;50.732;4.286;2022-09-13T01:59:52;2.80;;;2.28;;
61152;SDS011;47030;50.732;4.286;2022-09-13T02:05:19;3.85;;;2.58;;
61152;SDS011;47030;50.732;4.286;2022-09-13T02:10:45;3.55;;;2.78;;
61152;SDS011;47030;50.732;4.286;2022-09-13T02:13:25;4.50;;;2.35;;
61152;SDS011;47030;50.732;4.286;2022-09-13T02:15:56;3.55;;;2.55;;
61152;SDS011;47030;50.732;4.286;2022-09-13T02:18:39;3.20;;;2.65;;
61152;SDS011;47030;50.732;4.286;2022-09-13T02:21:19;4.85;;;3.00;;
61152;SDS011;47030;50.732;4.286;2022-09-13T02:23:52;3.12;;;2.72;;
61152;SDS011;47030;50.732;4.286;2022-09-13T02:26:22;4.78;;;2.70;;
61152;SDS011;47030;50.732;4.286;2022-09-13T02:28:53;3.55;;;2.47;;
61152;SDS011;47030;50.732;4.286;2022-09-13T02:31:26;6.72;;;3.05;;
61152;SDS011;47030;50.732;4.286;2022-09-13T02:34:02;3.08;;;2.70;;
61152;SDS011;47030;50.732;4.286;2022-09-13T02:36:33;5.47;;;3.40;;
61152;SDS011;47030;50.732;4.286;2022-09-13T02:39:06;4.03;;;2.80;;
61152;SDS011;47030;50.732;4.286;2022-09-13T02:41:50;4.87;;;2.45;;
61152;SDS011;47030;50.732;4.286;2022-09-13T02:44:24;3.92;;;2.50;;
61152;SDS011;47030;50.732;4.286;2022-09-13T02:55:21;3.87;;;2.42;;
61152;SDS011;47030;50.732;4.286;2022-09-13T02:58:24;4.12;;;2.67;;
61152;SDS011;47030;50.732;4.286;2022-09-13T03:00:59;3.78;;;2.70;;
61152;SDS011;47030;50.732;4.286;2022-09-13T03:03:25;3.92;;;2.62;;
61152;SDS011;47030;50.732;4.286;2022-09-13T03:05:51;4.22;;;2.80;;
61152;SDS011;47030;50.732;4.286;2022-09-13T03:08:17;4.53;;;2.97;;
61152;SDS011;47030;50.732;4.286;2022-09-13T03:24:59;3.42;;;2.92;;
61152;SDS011;47030;50.732;4.286;2022-09-13T03:27:43;3.85;;;2.75;;
61152;SDS011;47030;50.732;4.286;2022-09-13T03:30:26;3.67;;;2.80;;
61152;SDS011;47030;50.732;4.286;2022-09-13T03:38:44;6.97;;;2.80;;
61152;SDS011;47030;50.732;4.286;2022-09-13T03:41:25;3.60;;;2.62;;
61152;SDS011;47030;50.732;4.286;2022-09-13T03:43:57;3.20;;;2.87;;
61152;SDS011;47030;50.732;4.286;2022-09-13T03:46:28;4.45;;;2.92;;
61152;SDS011;47030;50.732;4.286;2022-09-13T03:49:05;4.95;;;2.85;;
61152;SDS011;47030;50.732;4.286;2022-09-13T03:51:33;4.10;;;2.50;;
61152;SDS011;47030;50.732;4.286;2022-09-13T03:54:01;3.65;;;2.40;;
61152;SDS011;47030;50.732;4.286;2022-09-13T03:56:32;4.90;;;3.22;;
61152;SDS011;47030;50.732;4.286;2022-09-13T03:58:58;3.00;;;2.58;;
61152;SDS011;47030;50.732;4.286;2022-09-13T04:01:24;3.33;;;2.62;;
61152;SDS011;47030;50.732;4.286;2022-09-13T04:03:50;5.93;;;2.90;;
61152;SDS011;47030;50.732;4.286;2022-09-13T04:06:16;4.12;;;2.92;;
61152;SDS011;47030;50.732;4.286;2022-09-13T04:08:42;3.08;;;2.60;;
61152;SDS011;47030;50.732;4.286;2022-09-13T04:11:08;4.57;;;2.78;;
61152;SDS011;47030;50.732;4.286;2022-09-13T04:13:34;4.55;;;3.10;;
61152;SDS011;47030;50.732;4.286;2022-09-13T04:16:01;4.50;;;2.65;;
61152;SDS011;47030;50.732;4.286;2022-09-13T04:18:28;4.15;;;2.55;;
61152;SDS011;47030;50.732;4.286;2022-09-13T04:20:55;7.12;;;2.95;;
61152;SDS011;47030;50.732;4.286;2022-09-13T04:23:23;4.00;;;2.90;;
61152;SDS011;47030;50.732;4.286;2022-09-13T04:25:50;6.00;;;2.65;;
61152;SDS011;47030;50.732;4.286;2022-09-13T04:28:17;5.53;;;3.08;;
61152;SDS011;47030;50.732;4.286;2022-09-13T04:30:44;3.83;;;2.90;;
61152;SDS011;47030;50.732;4.286;2022-09-13T04:33:11;3.03;;;2.70;;
61152;SDS011;47030;50.732;4.286;2022-09-13T04:35:37;5.07;;;3.10;;
61152;SDS011;47030;50.732;4.286;2022-09-13T04:38:06;5.30;;;3.08;;
61152;SDS011;47030;50.732;4.286;2022-09-13T04:40:33;4.18;;;3.03;;
61152;SDS011;47030;50.732;4.286;2022-09-13T04:43:02;4.20;;;2.85;;
61152;SDS011;47030;50.732;4.286;2022-09-13T04:45:28;4.53;;;3.20;;
61152;SDS011;47030;50.732;4.286;2022-09-13T04:47:54;4.30;;;3.20;;
61152;SDS011;47030;50.732;4.286;2022-09-13T04:50:20;3.60;;;2.83;;
61152;SDS011;47030;50.732;4.286;2022-09-13T04:52:47;3.20;;;2.90;;
61152;SDS011;47030;50.732;4.286;2022-09-13T04:55:13;5.65;;;3.20;;
61152;SDS011;47030;50.732;4.286;2022-09-13T04:57:39;3.87;;;2.67;;
61152;SDS011;47030;50.732;4.286;2022-09-13T05:00:05;5.93;;;2.72;;
61152;SDS011;47030;50.732;4.286;2022-09-13T05:02:32;5.50;;;2.90;;
61152;SDS011;47030;50.732;4.286;2022-09-13T05:04:58;4.65;;;2.60;;
61152;SDS011;47030;50.732;4.286;2022-09-13T05:07:24;4.00;;;2.90;;
61152;SDS011;47030;50.732;4.286;2022-09-13T05:09:50;5.32;;;3.97;;
61152;SDS011;47030;50.732;4.286;2022-09-13T05:12:16;4.00;;;3.30;;
61152;SDS011;47030;50.732;4.286;2022-09-13T05:14:41;5.70;;;3.67;;
61152;SDS011;47030;50.732;4.286;2022-09-13T05:17:07;7.80;;;3.90;;
61152;SDS011;47030;50.732;4.286;2022-09-13T05:19:33;5.68;;;3.28;;
61152;SDS011;47030;50.732;4.286;2022-09-13T05:21:59;4.85;;;3.37;;
61152;SDS011;47030;50.732;4.286;2022-09-13T05:24:25;3.90;;;3.37;;
61152;SDS011;47030;50.732;4.286;2022-09-13T05:26:51;7.15;;;3.20;;
61152;SDS011;47030;50.732;4.286;2022-09-13T05:29:17;4.32;;;2.90;;
61152;SDS011;47030;50.732;4.286;2022-09-13T05:31:43;6.12;;;3.55;;
61152;SDS011;47030;50.732;4.286;2022-09-13T05:34:09;4.28;;;3.22;;
61152;SDS011;47030;50.732;4.286;2022-09-13T05:36:37;7.97;;;4.03;;
61152;SDS011;47030;50.732;4.286;2022-09-13T05:39:04;7.20;;;3.25;;
61152;SDS011;47030;50.732;4.286;2022-09-13T05:41:30;5.10;;;3.00;;
61152;SDS011;47030;50.732;4.286;2022-09-13T05:43:56;5.30;;;3.10;;
61152;SDS011;47030;50.732;4.286;2022-09-13T05:46:22;4.47;;;3.53;;
61152;SDS011;47030;50.732;4.286;2022-09-13T05:48:48;4.10;;;2.92;;
61152;SDS011;47030;50.732;4.286;2022-09-13T05:51:14;4.47;;;3.35;;
61152;SDS011;47030;50.732;4.286;2022-09-13T05:53:47;5.62;;;3.60;;
61152;SDS011;47030;50.732;4.286;2022-09-13T05:56:15;3.53;;;3.22;;
61152;SDS011;47030;50.732;4.286;2022-09-13T05:58:46;5.53;;;3.47;;
61152;SDS011;47030;50.732;4.286;2022-09-13T06:01:13;5.68;;;3.78;;
61152;SDS011;47030;50.732;4.286;2022-09-13T06:03:41;4.85;;;3.60;;
61152;SDS011;47030;50.732;4.286;2022-09-13T06:06:07;5.62;;;3.42;;
61152;SDS011;47030;50.732;4.286;2022-09-13T06:08:34;9.77;;;3.53;;
61152;SDS011;47030;50.732;4.286;2022-09-13T06:13:28;4.57;;;3.80;;
61152;SDS011;47030;50.732;4.286;2022-09-13T06:15:55;4.32;;;3.75;;
61152;SDS011;47030;50.732;4.286;2022-09-13T06:18:22;5.40;;;3.78;;
61152;SDS011;47030;50.732;4.286;2022-09-13T06:20:48;5.03;;;4.40;;
61152;SDS011;47030;50.732;4.286;2022-09-13T06:23:15;8.35;;;4.40;;
61152;SDS011;47030;50.732;4.286;2022-09-13T06:25:41;7.30;;;4.32;;
61152;SDS011;47030;50.732;4.286;2022-09-13T06:28:07;7.37;;;4.15;;
61152;SDS011;47030;50.732;4.286;2022-09-13T06:30:33;5.25;;;3.85;;
61152;SDS011;47030;50.732;4.286;2022-09-13T06:33:00;6.80;;;3.80;;
61152;SDS011;47030;50.732;4.286;2022-09-13T06:35:26;6.55;;;4.30;;
61152;SDS011;47030;50.732;4.286;2022-09-13T06:37:55;7.32;;;4.35;;
61152;SDS011;47030;50.732;4.286;2022-09-13T06:40:22;8.55;;;4.12;;
61152;SDS011;47030;50.732;4.286;2022-09-13T06:42:48;9.93;;;4.68;;
61152;SDS011;47030;50.732;4.286;2022-09-13T06:45:14;8.18;;;4.62;;
61152;SDS011;47030;50.732;4.286;2022-09-13T06:47:40;7.03;;;5.32;;
61152;SDS011;47030;50.732;4.286;2022-09-13T06:50:06;9.35;;;4.78;;
61152;SDS011;47030;50.732;4.286;2022-09-13T06:52:33;5.07;;;4.55;;
61152;SDS011;47030;50.732;4.286;2022-09-13T06:54:59;7.55;;;5.15;;
61152;SDS011;47030;50.732;4.286;2022-09-13T06:57:24;12.65;;;4.75;;
61152;SDS011;47030;50.732;4.286;2022-09-13T06:59:53;5.18;;;4.15;;
61152;SDS011;47030;50.732;4.286;2022-09-13T07:02:19;8.80;;;5.57;;
61152;SDS011;47030;50.732;4.286;2022-09-13T07:04:45;6.43;;;4.72;;
61152;SDS011;47030;50.732;4.286;2022-09-13T07:07:10;5.57;;;4.65;;
61152;SDS011;47030;50.732;4.286;2022-09-13T07:09:36;6.78;;;4.28;;
61152;SDS011;47030;50.732;4.286;2022-09-13T07:12:03;8.05;;;4.43;;
61152;SDS011;47030;50.732;4.286;2022-09-13T07:14:30;8.02;;;4.60;;
61152;SDS011;47030;50.732;4.286;2022-09-13T07:16:56;5.90;;;4.28;;
61152;SDS011;47030;50.732;4.286;2022-09-13T07:19:22;5.85;;;4.15;;
61152;SDS011;47030;50.732;4.286;2022-09-13T07:21:53;7.15;;;4.37;;
61152;SDS011;47030;50.732;4.286;2022-09-13T07:24:20;5.72;;;4.20;;
61152;SDS011;47030;50.732;4.286;2022-09-13T07:26:47;5.03;;;4.05;;
61152;SDS011;47030;50.732;4.286;2022-09-13T07:29:14;4.53;;;4.05;;
61152;SDS011;47030;50.732;4.286;2022-09-13T07:31:44;6.70;;;3.70;;
61152;SDS011;47030;50.732;4.286;2022-09-13T07:34:15;5.62;;;4.03;;
61152;SDS011;47030;50.732;4.286;2022-09-13T07:36:42;6.85;;;4.25;;
61152;SDS011;47030;50.732;4.286;2022-09-13T07:39:12;5.50;;;4.20;;
61152;SDS011;47030;50.732;4.286;2022-09-13T07:41:38;5.62;;;4.10;;
61152;SDS011;47030;50.732;4.286;2022-09-13T07:44:04;6.40;;;3.60;;
61152;SDS011;47030;50.732;4.286;2022-09-13T07:46:33;5.03;;;3.60;;
61152;SDS011;47030;50.732;4.286;2022-09-13T07:49:05;4.28;;;3.60;;
61152;SDS011;47030;50.732;4.286;2022-09-13T07:51:32;4.62;;;3.42;;
61152;SDS011;47030;50.732;4.286;2022-09-13T07:54:03;5.50;;;3.70;;
61152;SDS011;47030;50.732;4.286;2022-09-13T07:56:32;5.32;;;3.20;;
61152;SDS011;47030;50.732;4.286;2022-09-13T07:59:00;5.00;;;2.67;;
61152;SDS011;47030;50.732;4.286;2022-09-13T08:01:28;6.68;;;3.30;;
61152;SDS011;47030;50.732;4.286;2022-09-13T08:03:55;4.18;;;2.85;;
61152;SDS011;47030;50.732;4.286;2022-09-13T08:06:27;5.53;;;3.00;;
61152;SDS011;47030;50.732;4.286;2022-09-13T08:08:54;5.53;;;2.70;;
61152;SDS011;47030;50.732;4.286;2022-09-13T08:11:24;3.75;;;3.00;;
61152;SDS011;47030;50.732;4.286;2022-09-13T08:13:52;4.80;;;2.87;;
61152;SDS011;47030;50.732;4.286;2022-09-13T08:16:19;2.90;;;2.60;;
61152;SDS011;47030;50.732;4.286;2022-09-13T08:18:48;3.80;;;2.45;;
61152;SDS011;47030;50.732;4.286;2022-09-13T08:21:16;4.47;;;2.60;;
61152;SDS011;47030;50.732;4.286;2022-09-13T08:23:42;9.02;;;2.97;;
61152;SDS011;47030;50.732;4.286;2022-09-13T08:26:09;5.35;;;3.25;;
61152;SDS011;47030;50.732;4.286;2022-09-13T08:28:35;8.40;;;3.58;;
61152;SDS011;47030;50.732;4.286;2022-09-13T08:33:30;8.27;;;3.35;;
61152;SDS011;47030;50.732;4.286;2022-09-13T08:35:56;6.78;;;3.20;;
61152;SDS011;47030;50.732;4.286;2022-09-13T08:38:22;5.30;;;2.90;;
61152;SDS011;47030;50.732;4.286;2022-09-13T08:40:49;7.68;;;2.85;;
61152;SDS011;47030;50.732;4.286;2022-09-13T08:46:34;3.53;;;3.08;;
61152;SDS011;47030;50.732;4.286;2022-09-13T08:49:04;4.75;;;3.25;;
61152;SDS011;47030;50.732;4.286;2022-09-13T08:54:01;5.07;;;2.90;;
61152;SDS011;47030;50.732;4.286;2022-09-13T08:59:49;5.45;;;2.72;;
61152;SDS011;47030;50.732;4.286;2022-09-13T09:07:39;7.97;;;2.83;;
61152;SDS011;47030;50.732;4.286;2022-09-13T09:13:07;3.87;;;2.70;;
61152;SDS011;47030;50.732;4.286;2022-09-13T09:15:42;5.40;;;2.85;;
61152;SDS011;47030;50.732;4.286;2022-09-13T09:18:13;4.53;;;2.90;;
61152;SDS011;47030;50.732;4.286;2022-09-13T09:20:46;5.35;;;2.47;;
61152;SDS011;47030;50.732;4.286;2022-09-13T09:23:18;3.25;;;2.50;;
61152;SDS011;47030;50.732;4.286;2022-09-13T09:25:55;5.25;;;2.50;;
61152;SDS011;47030;50.732;4.286;2022-09-13T09:28:29;5.35;;;2.60;;
61152;SDS011;47030;50.732;4.286;2022-09-13T09:31:03;2.90;;;2.15;;
61152;SDS011;47030;50.732;4.286;2022-09-13T09:36:49;4.20;;;2.40;;
61152;SDS011;47030;50.732;4.286;2022-09-13T09:39:24;4.45;;;2.12;;
61152;SDS011;47030;50.732;4.286;2022-09-13T09:41:56;4.07;;;2.22;;
61152;SDS011;47030;50.732;4.286;2022-09-13T09:44:24;4.20;;;2.37;;
61152;SDS011;47030;50.732;4.286;2022-09-13T09:49:49;5.70;;;2.42;;
61152;SDS011;47030;50.732;4.286;2022-09-13T09:55:30;5.75;;;2.80;;
61152;SDS011;47030;50.732;4.286;2022-09-13T09:57:57;6.03;;;2.62;;
61152;SDS011;47030;50.732;4.286;2022-09-13T10:00:31;8.63;;;3.03;;
61152;SDS011;47030;50.732;4.286;2022-09-13T10:03:00;5.12;;;2.70;;
61152;SDS011;47030;50.732;4.286;2022-09-13T10:05:29;3.95;;;2.62;;
61152;SDS011;47030;50.732;4.286;2022-09-13T10:08:00;6.97;;;2.80;;
61152;SDS011;47030;50.732;4.286;2022-09-13T10:13:06;6.37;;;3.00;;
61152;SDS011;47030;50.732;4.286;2022-09-13T10:15:39;3.87;;;2.53;;
61152;SDS011;47030;50.732;4.286;2022-09-13T10:18:22;5.70;;;3.47;;
61152;SDS011;47030;50.732;4.286;2022-09-13T10:23:29;8.80;;;4.00;;
61152;SDS011;47030;50.732;4.286;2022-09-13T10:31:38;7.70;;;4.37;;
61152;SDS011;47030;50.732;4.286;2022-09-13T10:34:12;9.05;;;4.50;;
61152;SDS011;47030;50.732;4.286;2022-09-13T10:36:42;6.55;;;4.57;;
61152;SDS011;47030;50.732;4.286;2022-09-13T10:39:19;7.95;;;3.60;;
61152;SDS011;47030;50.732;4.286;2022-09-13T10:41:51;8.00;;;3.87;;
61152;SDS011;47030;50.732;4.286;2022-09-13T10:44:25;7.90;;;4.20;;
61152;SDS011;47030;50.732;4.286;2022-09-13T10:47:02;4.28;;;3.10;;
61152;SDS011;47030;50.732;4.286;2022-09-13T10:49:34;7.45;;;4.07;;
61152;SDS011;47030;50.732;4.286;2022-09-13T10:52:31;6.80;;;3.40;;
61152;SDS011;47030;50.732;4.286;2022-09-13T10:55:23;8.43;;;3.83;;
61152;SDS011;47030;50.732;4.286;2022-09-13T10:58:11;7.43;;;3.95;;
61152;SDS011;47030;50.732;4.286;2022-09-13T11:00:38;8.27;;;3.83;;
61152;SDS011;47030;50.732;4.286;2022-09-13T11:06:25;3.58;;;3.20;;
61152;SDS011;47030;50.732;4.286;2022-09-13T11:09:12;6.60;;;4.00;;
61152;SDS011;47030;50.732;4.286;2022-09-13T11:20:30;8.43;;;4.35;;
61152;SDS011;47030;50.732;4.286;2022-09-13T11:31:02;8.50;;;4.72;;
61152;SDS011;47030;50.732;4.286;2022-09-13T11:36:16;6.18;;;3.70;;
61152;SDS011;47030;50.732;4.286;2022-09-13T11:42:12;5.28;;;3.30;;
61152;SDS011;47030;50.732;4.286;2022-09-13T11:50:16;4.07;;;2.80;;
61152;SDS011;47030;50.732;4.286;2022-09-13T11:55:39;6.40;;;3.15;;
61152;SDS011;47030;50.732;4.286;2022-09-13T11:58:12;4.47;;;2.67;;
61152;SDS011;47030;50.732;4.286;2022-09-13T12:00:46;5.32;;;2.90;;
61152;SDS011;47030;50.732;4.286;2022-09-13T12:03:20;5.07;;;3.25;;
61152;SDS011;47030;50.732;4.286;2022-09-13T12:06:10;9.05;;;3.30;;
61152;SDS011;47030;50.732;4.286;2022-09-13T12:08:48;4.78;;;3.15;;
61152;SDS011;47030;50.732;4.286;2022-09-13T12:11:24;8.00;;;3.37;;
61152;SDS011;47030;50.732;4.286;2022-09-13T12:14:04;4.20;;;2.75;;
61152;SDS011;47030;50.732;4.286;2022-09-13T12:16:32;7.25;;;3.65;;
61152;SDS011;47030;50.732;4.286;2022-09-13T12:19:10;5.75;;;3.03;;
61152;SDS011;47030;50.732;4.286;2022-09-13T12:21:43;5.60;;;3.45;;
61152;SDS011;47030;50.732;4.286;2022-09-13T12:24:14;5.62;;;3.50;;
61152;SDS011;47030;50.732;4.286;2022-09-13T12:26:45;5.93;;;3.60;;
61152;SDS011;47030;50.732;4.286;2022-09-13T12:29:18;6.53;;;3.60;;
61152;SDS011;47030;50.732;4.286;2022-09-13T12:31:55;10.75;;;3.55;;
61152;SDS011;47030;50.732;4.286;2022-09-13T12:34:30;7.43;;;3.60;;
61152;SDS011;47030;50.732;4.286;2022-09-13T12:37:17;4.28;;;3.08;;
61152;SDS011;47030;50.732;4.286;2022-09-13T12:42:45;5.82;;;2.90;;
61152;SDS011;47030;50.732;4.286;2022-09-13T13:01:35;7.60;;;3.00;;
61152;SDS011;47030;50.732;4.286;2022-09-13T13:12:06;4.60;;;3.12;;
61152;SDS011;47030;50.732;4.286;2022-09-13T13:14:50;4.22;;;2.67;;
61152;SDS011;47030;50.732;4.286;2022-09-13T13:39:37;6.72;;;3.47;;
61152;SDS011;47030;50.732;4.286;2022-09-13T13:49:50;5.82;;;3.55;;
61152;SDS011;47030;50.732;4.286;2022-09-13T13:57:28;5.68;;;3.67;;
61152;SDS011;47030;50.732;4.286;2022-09-13T14:00:13;6.30;;;3.47;;
61152;SDS011;47030;50.732;4.286;2022-09-13T14:02:42;7.12;;;3.95;;
61152;SDS011;47030;50.732;4.286;2022-09-13T14:07:56;5.82;;;3.85;;
61152;SDS011;47030;50.732;4.286;2022-09-13T14:10:42;6.85;;;4.12;;
61152;SDS011;47030;50.732;4.286;2022-09-13T14:21:24;7.97;;;3.40;;
61152;SDS011;47030;50.732;4.286;2022-09-13T14:24:06;7.00;;;4.40;;
61152;SDS011;47030;50.732;4.286;2022-09-13T14:26:43;5.75;;;3.83;;
61152;SDS011;47030;50.732;4.286;2022-09-13T14:29:17;10.63;;;4.25;;
61152;SDS011;47030;50.732;4.286;2022-09-13T14:31:48;6.35;;;3.90;;
61152;SDS011;47030;50.732;4.286;2022-09-13T14:34:49;6.93;;;3.92;;
61152;SDS011;47030;50.732;4.286;2022-09-13T14:37:18;7.57;;;4.07;;
61152;SDS011;47030;50.732;4.286;2022-09-13T14:39:53;5.87;;;3.45;;
61152;SDS011;47030;50.732;4.286;2022-09-13T14:42:19;9.20;;;3.90;;
61152;SDS011;47030;50.732;4.286;2022-09-13T14:44:45;6.07;;;4.05;;
61152;SDS011;47030;50.732;4.286;2022-09-13T14:50:17;7.07;;;4.10;;
61152;SDS011;47030;50.732;4.286;2022-09-13T14:52:49;9.65;;;4.45;;
61152;SDS011;47030;50.732;4.286;2022-09-13T14:55:37;6.62;;;4.45;;
61152;SDS011;47030;50.732;4.286;2022-09-13T14:58:12;6.03;;;4.37;;
61152;SDS011;47030;50.732;4.286;2022-09-13T15:01:05;7.62;;;3.97;;
61152;SDS011;47030;50.732;4.286;2022-09-13T15:03:32;7.43;;;4.45;;
61152;SDS011;47030;50.732;4.286;2022-09-13T15:05:59;7.95;;;4.37;;
61152;SDS011;47030;50.732;4.286;2022-09-13T15:11:00;5.45;;;3.80;;
61152;SDS011;47030;50.732;4.286;2022-09-13T15:13:27;7.62;;;3.92;;
61152;SDS011;47030;50.732;4.286;2022-09-13T15:15:53;7.68;;;4.30;;
61152;SDS011;47030;50.732;4.286;2022-09-13T15:20:51;5.82;;;4.18;;
61152;SDS011;47030;50.732;4.286;2022-09-13T15:23:29;5.43;;;3.72;;
61152;SDS011;47030;50.732;4.286;2022-09-13T15:28:57;7.07;;;3.83;;
61152;SDS011;47030;50.732;4.286;2022-09-13T15:31:31;5.37;;;3.80;;
61152;SDS011;47030;50.732;4.286;2022-09-13T15:36:46;6.90;;;3.90;;
61152;SDS011;47030;50.732;4.286;2022-09-13T15:39:14;7.47;;;3.35;;
61152;SDS011;47030;50.732;4.286;2022-09-13T15:44:16;7.53;;;3.87;;
61152;SDS011;47030;50.732;4.286;2022-09-13T15:46:49;7.78;;;4.12;;
61152;SDS011;47030;50.732;4.286;2022-09-13T15:49:17;9.43;;;3.78;;
61152;SDS011;47030;50.732;4.286;2022-09-13T15:51:52;7.43;;;4.53;;
61152;SDS011;47030;50.732;4.286;2022-09-13T15:54:20;5.35;;;3.75;;
61152;SDS011;47030;50.732;4.286;2022-09-13T15:56:47;6.25;;;3.37;;
61152;SDS011;47030;50.732;4.286;2022-09-13T15:59:16;5.35;;;3.50;;
61152;SDS011;47030;50.732;4.286;2022-09-13T16:01:44;7.18;;;3.72;;
61152;SDS011;47030;50.732;4.286;2022-09-13T16:04:11;9.13;;;3.85;;
61152;SDS011;47030;50.732;4.286;2022-09-13T16:06:37;5.37;;;3.90;;
61152;SDS011;47030;50.732;4.286;2022-09-13T16:09:10;7.15;;;4.40;;
61152;SDS011;47030;50.732;4.286;2022-09-13T16:11:51;8.63;;;4.40;;
61152;SDS011;47030;50.732;4.286;2022-09-13T16:14:17;8.45;;;4.50;;
61152;SDS011;47030;50.732;4.286;2022-09-13T16:16:43;6.32;;;4.03;;
61152;SDS011;47030;50.732;4.286;2022-09-13T16:19:17;8.23;;;4.60;;
61152;SDS011;47030;50.732;4.286;2022-09-13T16:21:45;6.28;;;4.10;;
61152;SDS011;47030;50.732;4.286;2022-09-13T16:24:11;8.82;;;4.50;;
61152;SDS011;47030;50.732;4.286;2022-09-13T16:26:37;9.23;;;4.82;;
61152;SDS011;47030;50.732;4.286;2022-09-13T16:29:04;8.02;;;5.20;;
61152;SDS011;47030;50.732;4.286;2022-09-13T16:31:30;6.45;;;4.80;;
61152;SDS011;47030;50.732;4.286;2022-09-13T16:33:55;6.30;;;4.20;;
61152;SDS011;47030;50.732;4.286;2022-09-13T16:36:21;7.60;;;4.22;;
61152;SDS011;47030;50.732;4.286;2022-09-13T16:38:47;7.70;;;5.15;;
61152;SDS011;47030;50.732;4.286;2022-09-13T16:41:13;8.70;;;5.35;;
61152;SDS011;47030;50.732;4.286;2022-09-13T16:43:38;8.90;;;5.97;;
61152;SDS011;47030;50.732;4.286;2022-09-13T16:46:05;7.62;;;5.40;;
61152;SDS011;47030;50.732;4.286;2022-09-13T16:48:31;10.85;;;6.20;;
61152;SDS011;47030;50.732;4.286;2022-09-13T16:51:01;8.85;;;5.20;;
61152;SDS011;47030;50.732;4.286;2022-09-13T16:53:32;7.68;;;5.25;;
61152;SDS011;47030;50.732;4.286;2022-09-13T16:56:09;6.97;;;4.80;;
61152;SDS011;47030;50.732;4.286;2022-09-13T16:58:38;8.70;;;5.55;;
61152;SDS011;47030;50.732;4.286;2022-09-13T17:01:05;6.50;;;4.72;;
61152;SDS011;47030;50.732;4.286;2022-09-13T17:03:32;7.15;;;4.80;;
61152;SDS011;47030;50.732;4.286;2022-09-13T17:06:00;6.93;;;4.60;;
61152;SDS011;47030;50.732;4.286;2022-09-13T17:08:28;7.75;;;5.22;;
61152;SDS011;47030;50.732;4.286;2022-09-13T17:10:54;6.93;;;5.00;;
61152;SDS011;47030;50.732;4.286;2022-09-13T17:13:20;8.48;;;5.10;;
61152;SDS011;47030;50.732;4.286;2022-09-13T17:15:46;8.98;;;5.00;;
61152;SDS011;47030;50.732;4.286;2022-09-13T17:18:12;9.77;;;5.10;;
61152;SDS011;47030;50.732;4.286;2022-09-13T17:20:45;10.10;;;6.12;;
61152;SDS011;47030;50.732;4.286;2022-09-13T17:23:11;9.07;;;5.80;;
61152;SDS011;47030;50.732;4.286;2022-09-13T17:25:41;7.60;;;4.80;;
61152;SDS011;47030;50.732;4.286;2022-09-13T17:28:11;10.25;;;6.50;;
61152;SDS011;47030;50.732;4.286;2022-09-13T17:30:37;9.82;;;5.30;;
61152;SDS011;47030;50.732;4.286;2022-09-13T17:33:03;10.20;;;5.57;;
61152;SDS011;47030;50.732;4.286;2022-09-13T17:35:30;8.55;;;5.85;;
61152;SDS011;47030;50.732;4.286;2022-09-13T17:37:57;8.95;;;5.47;;
61152;SDS011;47030;50.732;4.286;2022-09-13T17:40:24;8.93;;;6.45;;
61152;SDS011;47030;50.732;4.286;2022-09-13T17:42:50;8.20;;;5.68;;
61152;SDS011;47030;50.732;4.286;2022-09-13T17:45:16;9.77;;;6.25;;
61152;SDS011;47030;50.732;4.286;2022-09-13T17:47:42;8.30;;;5.97;;
61152;SDS011;47030;50.732;4.286;2022-09-13T17:50:08;7.75;;;5.05;;
61152;SDS011;47030;50.732;4.286;2022-09-13T17:52:34;9.20;;;5.35;;
61152;SDS011;47030;50.732;4.286;2022-09-13T17:54:59;8.68;;;5.85;;
61152;SDS011;47030;50.732;4.286;2022-09-13T17:57:26;10.30;;;6.22;;
61152;SDS011;47030;50.732;4.286;2022-09-13T17:59:52;8.73;;;6.00;;
61152;SDS011;47030;50.732;4.286;2022-09-13T18:02:18;9.40;;;6.80;;
61152;SDS011;47030;50.732;4.286;2022-09-13T18:04:45;8.73;;;6.60;;
61152;SDS011;47030;50.732;4.286;2022-09-13T18:07:14;9.57;;;6.72;;
61152;SDS011;47030;50.732;4.286;2022-09-13T18:09:40;9.80;;;6.57;;
61152;SDS011;47030;50.732;4.286;2022-09-13T18:12:07;9.30;;;6.53;;
61152;SDS011;47030;50.732;4.286;2022-09-13T18:14:33;9.55;;;7.15;;
61152;SDS011;47030;50.732;4.286;2022-09-13T18:16:58;10.98;;;7.30;;
61152;SDS011;47030;50.732;4.286;2022-09-13T18:19:24;8.00;;;6.78;;
61152;SDS011;47030;50.732;4.286;2022-09-13T18:21:50;9.98;;;7.35;;
61152;SDS011;47030;50.732;4.286;2022-09-13T18:24:16;10.40;;;7.00;;
61152;SDS011;47030;50.732;4.286;2022-09-13T18:26:41;9.63;;;7.40;;
61152;SDS011;47030;50.732;4.286;2022-09-13T18:29:11;12.80;;;7.43;;
61152;SDS011;47030;50.732;4.286;2022-09-13T18:31:38;11.25;;;6.78;;
61152;SDS011;47030;50.732;4.286;2022-09-13T18:34:06;9.82;;;6.18;;
61152;SDS011;47030;50.732;4.286;2022-09-13T18:36:34;7.47;;;6.20;;
61152;SDS011;47030;50.732;4.286;2022-09-13T18:39:01;10.52;;;5.90;;
61152;SDS011;47030;50.732;4.286;2022-09-13T18:41:32;7.50;;;5.47;;
61152;SDS011;47030;50.732;4.286;2022-09-13T18:44:00;7.95;;;5.50;;
61152;SDS011;47030;50.732;4.286;2022-09-13T18:46:29;6.78;;;5.57;;
61152;SDS011;47030;50.732;4.286;2022-09-13T18:48:56;8.07;;;6.00;;